sensor_id;sensor_type;location;lat;lon;timestamp;pressure;altitude;pressure_sealevel;temperature;humidity
16431;BME280;8325;49.284;7.238;2022-08-01T04:03:02;98889.13;;;18.29;70.07
16431;BME280;8325;49.284;7.238;2022-08-01T04:07:26;98883.22;;;18.27;70.59
16431;BME280;8325;49.284;7.238;2022-08-01T04:11:38;98878.13;;;18.25;70.80
16431;BME280;8325;49.284;7.238;2022-08-01T04:15:49;98883.84;;;18.29;70.66
16431;BME280;8325;49.284;7.238;2022-08-01T04:20:01;98881.34;;;18.34;69.90
16431;BME280;8325;49.284;7.238;2022-08-01T04:24:16;98887.38;;;18.41;70.00
16431;BME280;8325;49.284;7.238;2022-08-01T04:28:30;98892.09;;;18.39;70.68
16431;BME280;8325;49.284;7.238;2022-08-01T04:32:46;98897.50;;;18.44;70.87
16431;BME280;8325;49.284;7.238;2022-08-01T04:36:59;98897.41;;;18.57;70.37
16431;BME280;8325;49.284;7.238;2022-08-01T04:41:12;98908.50;;;18.73;70.08
16431;BME280;8325;49.284;7.238;2022-08-01T04:45:25;98903.75;;;18.81;69.88
16431;BME280;8325;49.284;7.238;2022-08-01T04:49:37;98901.16;;;18.93;69.58
16431;BME280;8325;49.284;7.238;2022-08-01T04:53:59;98909.63;;;19.02;69.06
16431;BME280;8325;49.284;7.238;2022-08-01T04:58:13;98905.53;;;19.06;69.36
16431;BME280;8325;49.284;7.238;2022-08-01T05:02:29;98911.91;;;19.17;69.11
16431;BME280;8325;49.284;7.238;2022-08-01T05:06:40;98912.81;;;19.29;68.82
16431;BME280;8325;49.284;7.238;2022-08-01T05:10:52;98910.53;;;19.32;68.56
16431;BME280;8325;49.284;7.238;2022-08-01T05:15:04;98901.91;;;19.55;67.80
16431;BME280;8325;49.284;7.238;2022-08-01T05:19:16;98906.75;;;19.77;67.05
16431;BME280;8325;49.284;7.238;2022-08-01T05:23:27;98910.72;;;19.98;66.13
16431;BME280;8325;49.284;7.238;2022-08-01T05:27:53;98920.44;;;20.16;65.64
16431;BME280;8325;49.284;7.238;2022-08-01T05:32:04;98923.47;;;20.31;65.66
16431;BME280;8325;49.284;7.238;2022-08-01T05:36:17;98911.50;;;20.40;65.33
16431;BME280;8325;49.284;7.238;2022-08-01T05:40:28;98916.66;;;20.54;64.98
16431;BME280;8325;49.284;7.238;2022-08-01T05:44:40;98922.19;;;20.87;64.41
16431;BME280;8325;49.284;7.238;2022-08-01T05:48:51;98920.31;;;21.00;64.46
16431;BME280;8325;49.284;7.238;2022-08-01T05:53:04;98916.47;;;21.31;63.02
16431;BME280;8325;49.284;7.238;2022-08-01T05:57:15;98920.13;;;21.53;62.85
16431;BME280;8325;49.284;7.238;2022-08-01T06:01:27;98921.88;;;21.48;62.41
16431;BME280;8325;49.284;7.238;2022-08-01T06:05:39;98923.47;;;21.49;63.17
16431;BME280;8325;49.284;7.238;2022-08-01T06:09:51;98924.06;;;21.51;62.97
16431;BME280;8325;49.284;7.238;2022-08-01T06:14:02;98927.31;;;21.53;63.00
16431;BME280;8325;49.284;7.238;2022-08-01T06:18:15;98930.97;;;21.52;63.14
16431;BME280;8325;49.284;7.238;2022-08-01T06:22:26;98937.53;;;21.61;62.54
16431;BME280;8325;49.284;7.238;2022-08-01T06:26:38;98940.03;;;23.70;57.22
16431;BME280;8325;49.284;7.238;2022-08-01T06:30:50;98938.34;;;23.42;57.23
16431;BME280;8325;49.284;7.238;2022-08-01T06:35:01;98931.28;;;24.61;53.58
16431;BME280;8325;49.284;7.238;2022-08-01T06:39:13;98923.53;;;29.15;43.11
16431;BME280;8325;49.284;7.238;2022-08-01T06:43:24;98909.75;;;32.01;37.33
16431;BME280;8325;49.284;7.238;2022-08-01T06:47:37;98914.09;;;32.10;36.05
16431;BME280;8325;49.284;7.238;2022-08-01T06:51:48;98926.19;;;30.99;38.45
16431;BME280;8325;49.284;7.238;2022-08-01T06:56:00;98921.25;;;29.70;40.14
16431;BME280;8325;49.284;7.238;2022-08-01T07:00:12;98922.03;;;29.28;42.07
16431;BME280;8325;49.284;7.238;2022-08-01T07:04:24;98915.50;;;28.22;44.22
16431;BME280;8325;49.284;7.238;2022-08-01T07:08:36;98920.75;;;28.04;44.27
16431;BME280;8325;49.284;7.238;2022-08-01T07:12:49;98918.47;;;27.12;46.71
16431;BME280;8325;49.284;7.238;2022-08-01T07:17:01;98931.69;;;26.41;48.00
16431;BME280;8325;49.284;7.238;2022-08-01T07:21:13;98930.59;;;25.86;49.70
16431;BME280;8325;49.284;7.238;2022-08-01T07:25:44;98936.50;;;25.93;48.82
16431;BME280;8325;49.284;7.238;2022-08-01T07:30:04;98922.97;;;25.47;49.79
16431;BME280;8325;49.284;7.238;2022-08-01T07:34:16;98930.50;;;25.66;50.09
16431;BME280;8325;49.284;7.238;2022-08-01T07:38:28;98922.47;;;25.61;50.88
16431;BME280;8325;49.284;7.238;2022-08-01T07:42:39;98929.00;;;26.16;49.08
16431;BME280;8325;49.284;7.238;2022-08-01T07:46:54;98923.16;;;26.60;48.32
16431;BME280;8325;49.284;7.238;2022-08-01T07:51:06;98932.78;;;26.56;47.04
16431;BME280;8325;49.284;7.238;2022-08-01T07:55:17;98926.88;;;26.38;48.16
16431;BME280;8325;49.284;7.238;2022-08-01T07:59:29;98927.91;;;25.81;49.08
16431;BME280;8325;49.284;7.238;2022-08-01T08:03:41;98936.03;;;25.39;50.72
16431;BME280;8325;49.284;7.238;2022-08-01T08:07:53;98940.03;;;25.31;51.21
16431;BME280;8325;49.284;7.238;2022-08-01T08:12:05;98944.25;;;25.22;49.70
16431;BME280;8325;49.284;7.238;2022-08-01T08:16:17;98940.59;;;25.48;49.59
16431;BME280;8325;49.284;7.238;2022-08-01T08:20:29;98941.06;;;26.03;48.97
16431;BME280;8325;49.284;7.238;2022-08-01T08:24:41;98931.44;;;26.12;48.77
16431;BME280;8325;49.284;7.238;2022-08-01T08:28:57;98941.31;;;25.86;48.40
16431;BME280;8325;49.284;7.238;2022-08-01T08:33:08;98936.38;;;25.53;49.38
16431;BME280;8325;49.284;7.238;2022-08-01T08:37:24;98936.88;;;25.49;50.02
16431;BME280;8325;49.284;7.238;2022-08-01T08:41:42;98925.19;;;25.76;48.43
16431;BME280;8325;49.284;7.238;2022-08-01T08:45:59;98922.28;;;25.88;49.46
16431;BME280;8325;49.284;7.238;2022-08-01T08:50:12;98927.06;;;25.81;47.91
16431;BME280;8325;49.284;7.238;2022-08-01T08:54:24;98918.97;;;25.55;49.16
16431;BME280;8325;49.284;7.238;2022-08-01T08:58:44;98934.19;;;25.44;49.63
16431;BME280;8325;49.284;7.238;2022-08-01T09:02:56;98927.19;;;25.33;49.70
16431;BME280;8325;49.284;7.238;2022-08-01T09:07:08;98934.38;;;25.27;50.11
16431;BME280;8325;49.284;7.238;2022-08-01T09:11:23;98931.97;;;25.26;49.83
16431;BME280;8325;49.284;7.238;2022-08-01T09:15:54;98937.97;;;25.01;50.69
16431;BME280;8325;49.284;7.238;2022-08-01T09:20:06;98940.41;;;25.08;50.68
16431;BME280;8325;49.284;7.238;2022-08-01T09:24:18;98946.22;;;24.94;50.78
16431;BME280;8325;49.284;7.238;2022-08-01T09:28:41;98945.00;;;24.75;51.52
16431;BME280;8325;49.284;7.238;2022-08-01T09:33:02;98946.63;;;24.81;51.74
16431;BME280;8325;49.284;7.238;2022-08-01T09:37:32;98947.66;;;24.75;51.92
16431;BME280;8325;49.284;7.238;2022-08-01T09:41:56;98945.50;;;24.72;51.37
16431;BME280;8325;49.284;7.238;2022-08-01T09:46:10;98941.13;;;24.55;51.55
16431;BME280;8325;49.284;7.238;2022-08-01T09:50:38;98945.31;;;24.84;50.96
16431;BME280;8325;49.284;7.238;2022-08-01T09:55:01;98944.53;;;24.83;51.16
16431;BME280;8325;49.284;7.238;2022-08-01T09:59:12;98951.44;;;24.79;51.71
16431;BME280;8325;49.284;7.238;2022-08-01T10:03:26;98952.47;;;24.73;51.50
16431;BME280;8325;49.284;7.238;2022-08-01T10:07:57;98946.69;;;24.86;51.30
16431;BME280;8325;49.284;7.238;2022-08-01T10:12:11;98946.41;;;25.25;50.63
16431;BME280;8325;49.284;7.238;2022-08-01T10:16:26;98944.66;;;25.56;49.26
16431;BME280;8325;49.284;7.238;2022-08-01T10:20:40;98948.09;;;25.46;48.99
16431;BME280;8325;49.284;7.238;2022-08-01T10:24:55;98951.81;;;25.40;48.82
16431;BME280;8325;49.284;7.238;2022-08-01T10:29:07;98951.81;;;25.45;49.26
16431;BME280;8325;49.284;7.238;2022-08-01T10:33:40;98948.06;;;25.41;48.97
16431;BME280;8325;49.284;7.238;2022-08-01T10:38:03;98937.97;;;25.64;49.34
16431;BME280;8325;49.284;7.238;2022-08-01T10:42:17;98934.59;;;25.89;47.50
16431;BME280;8325;49.284;7.238;2022-08-01T10:46:30;98929.56;;;26.28;47.43
16431;BME280;8325;49.284;7.238;2022-08-01T10:50:51;98922.88;;;26.72;46.57
16431;BME280;8325;49.284;7.238;2022-08-01T10:55:05;98920.19;;;26.72;46.07
16431;BME280;8325;49.284;7.238;2022-08-01T10:59:35;98919.94;;;26.73;45.71
16431;BME280;8325;49.284;7.238;2022-08-01T11:04:12;98922.06;;;26.51;45.42
16431;BME280;8325;49.284;7.238;2022-08-01T11:08:27;98918.84;;;26.13;46.60
16431;BME280;8325;49.284;7.238;2022-08-01T11:12:41;98926.59;;;25.94;47.50
16431;BME280;8325;49.284;7.238;2022-08-01T11:16:54;98914.03;;;26.25;46.40
16431;BME280;8325;49.284;7.238;2022-08-01T11:21:06;98918.31;;;26.36;46.49
16431;BME280;8325;49.284;7.238;2022-08-01T11:34:55;98914.81;;;26.26;45.51
16431;BME280;8325;49.284;7.238;2022-08-01T11:43:24;98921.53;;;26.18;46.25
16431;BME280;8325;49.284;7.238;2022-08-01T11:47:45;98915.63;;;26.26;46.21
16431;BME280;8325;49.284;7.238;2022-08-01T11:52:01;98910.53;;;26.20;46.06
16431;BME280;8325;49.284;7.238;2022-08-01T11:56:15;98911.63;;;26.13;46.09
16431;BME280;8325;49.284;7.238;2022-08-01T12:00:28;98911.34;;;26.35;46.03
16431;BME280;8325;49.284;7.238;2022-08-01T12:05:01;98911.91;;;26.12;46.08
16431;BME280;8325;49.284;7.238;2022-08-01T12:09:20;98912.16;;;26.15;46.57
16431;BME280;8325;49.284;7.238;2022-08-01T12:13:41;98910.81;;;26.13;45.85
16431;BME280;8325;49.284;7.238;2022-08-01T12:17:59;98920.44;;;26.19;46.49
16431;BME280;8325;49.284;7.238;2022-08-01T12:22:13;98913.50;;;26.08;46.50
16431;BME280;8325;49.284;7.238;2022-08-01T12:26:39;98917.25;;;26.12;46.46
16431;BME280;8325;49.284;7.238;2022-08-01T12:30:51;98912.16;;;26.26;46.23
16431;BME280;8325;49.284;7.238;2022-08-01T12:35:23;98912.44;;;26.39;46.63
16431;BME280;8325;49.284;7.238;2022-08-01T12:39:36;98903.34;;;26.61;45.29
16431;BME280;8325;49.284;7.238;2022-08-01T12:43:50;98900.91;;;26.59;45.57
16431;BME280;8325;49.284;7.238;2022-08-01T12:48:07;98900.63;;;26.76;45.60
16431;BME280;8325;49.284;7.238;2022-08-01T12:52:19;98901.09;;;27.04;44.60
16431;BME280;8325;49.284;7.238;2022-08-01T12:56:37;98903.22;;;27.02;43.79
16431;BME280;8325;49.284;7.238;2022-08-01T13:00:50;98903.25;;;26.97;44.18
16431;BME280;8325;49.284;7.238;2022-08-01T13:05:14;98903.22;;;27.07;43.67
16431;BME280;8325;49.284;7.238;2022-08-01T13:09:26;98892.19;;;27.29;43.19
16431;BME280;8325;49.284;7.238;2022-08-01T13:13:46;98900.50;;;27.12;43.13
16431;BME280;8325;49.284;7.238;2022-08-01T13:18:01;98898.94;;;27.06;43.38
16431;BME280;8325;49.284;7.238;2022-08-01T13:22:33;98891.41;;;27.18;43.17
16431;BME280;8325;49.284;7.238;2022-08-01T13:26:52;98880.16;;;27.11;43.29
16431;BME280;8325;49.284;7.238;2022-08-01T13:31:06;98878.31;;;27.01;43.19
16431;BME280;8325;49.284;7.238;2022-08-01T13:35:20;98873.50;;;26.93;43.33
16431;BME280;8325;49.284;7.238;2022-08-01T13:39:31;98882.91;;;26.85;43.61
16431;BME280;8325;49.284;7.238;2022-08-01T13:43:52;98897.00;;;27.32;42.96
16431;BME280;8325;49.284;7.238;2022-08-01T13:48:10;98878.22;;;27.82;41.65
16431;BME280;8325;49.284;7.238;2022-08-01T13:52:29;98883.00;;;27.90;41.35
16431;BME280;8325;49.284;7.238;2022-08-01T13:56:41;98880.97;;;28.45;40.90
16431;BME280;8325;49.284;7.238;2022-08-01T14:00:52;98868.13;;;28.42;39.82
16431;BME280;8325;49.284;7.238;2022-08-01T14:05:05;98874.00;;;28.10;40.64
16431;BME280;8325;49.284;7.238;2022-08-01T14:09:17;98876.91;;;27.79;40.95
16431;BME280;8325;49.284;7.238;2022-08-01T14:13:34;98871.94;;;27.52;41.42
16431;BME280;8325;49.284;7.238;2022-08-01T14:17:55;98858.84;;;27.45;42.03
16431;BME280;8325;49.284;7.238;2022-08-01T14:22:07;98859.22;;;27.18;41.89
16431;BME280;8325;49.284;7.238;2022-08-01T14:26:19;98862.72;;;27.14;41.87
16431;BME280;8325;49.284;7.238;2022-08-01T14:30:30;98854.75;;;26.93;42.84
16431;BME280;8325;49.284;7.238;2022-08-01T14:34:42;98870.25;;;27.06;42.65
16431;BME280;8325;49.284;7.238;2022-08-01T14:38:54;98878.84;;;26.98;42.53
16431;BME280;8325;49.284;7.238;2022-08-01T14:43:11;98871.13;;;26.92;42.91
16431;BME280;8325;49.284;7.238;2022-08-01T14:47:41;98872.25;;;26.65;42.95
16431;BME280;8325;49.284;7.238;2022-08-01T14:51:52;98877.03;;;26.78;43.12
16431;BME280;8325;49.284;7.238;2022-08-01T14:56:04;98869.59;;;26.55;43.69
16431;BME280;8325;49.284;7.238;2022-08-01T15:00:17;98877.06;;;26.48;43.94
16431;BME280;8325;49.284;7.238;2022-08-01T15:04:28;98871.69;;;26.48;44.39
16431;BME280;8325;49.284;7.238;2022-08-01T15:08:41;98876.00;;;26.38;43.66
16431;BME280;8325;49.284;7.238;2022-08-01T15:12:54;98865.31;;;26.28;44.17
16431;BME280;8325;49.284;7.238;2022-08-01T15:17:06;98859.41;;;26.36;44.84
16431;BME280;8325;49.284;7.238;2022-08-01T15:21:19;98857.53;;;26.32;44.15
16431;BME280;8325;49.284;7.238;2022-08-01T15:25:50;98859.16;;;26.17;44.21
16431;BME280;8325;49.284;7.238;2022-08-01T15:30:03;98860.75;;;26.03;44.30
16431;BME280;8325;49.284;7.238;2022-08-01T15:34:14;98869.88;;;26.12;44.20
16431;BME280;8325;49.284;7.238;2022-08-01T15:38:26;98873.88;;;26.00;44.86
16431;BME280;8325;49.284;7.238;2022-08-01T15:42:38;98878.69;;;25.92;45.04
16431;BME280;8325;49.284;7.238;2022-08-01T15:46:50;98874.88;;;25.73;45.57
16431;BME280;8325;49.284;7.238;2022-08-01T15:51:01;98868.47;;;25.74;45.75
16431;BME280;8325;49.284;7.238;2022-08-01T15:55:13;98859.59;;;25.58;46.05
16431;BME280;8325;49.284;7.238;2022-08-01T15:59:24;98864.16;;;25.53;46.43
16431;BME280;8325;49.284;7.238;2022-08-01T16:03:36;98867.63;;;25.58;46.61
16431;BME280;8325;49.284;7.238;2022-08-01T16:07:48;98865.25;;;25.72;46.14
16431;BME280;8325;49.284;7.238;2022-08-01T16:12:11;98866.91;;;25.83;46.24
16431;BME280;8325;49.284;7.238;2022-08-01T16:16:23;98853.53;;;25.93;46.16
16431;BME280;8325;49.284;7.238;2022-08-01T16:20:35;98864.53;;;26.02;46.84
16431;BME280;8325;49.284;7.238;2022-08-01T16:24:54;98856.22;;;25.99;46.65
16431;BME280;8325;49.284;7.238;2022-08-01T16:29:11;98856.22;;;26.04;46.81
16431;BME280;8325;49.284;7.238;2022-08-01T16:33:22;98856.50;;;26.17;46.42
16431;BME280;8325;49.284;7.238;2022-08-01T16:37:54;98845.50;;;26.24;46.05
16431;BME280;8325;49.284;7.238;2022-08-01T16:42:05;98843.63;;;26.14;45.95
16431;BME280;8325;49.284;7.238;2022-08-01T16:46:17;98843.91;;;25.92;45.91
16431;BME280;8325;49.284;7.238;2022-08-01T16:50:30;98840.41;;;25.82;45.99
16431;BME280;8325;49.284;7.238;2022-08-01T16:54:41;98841.22;;;25.82;46.37
16431;BME280;8325;49.284;7.238;2022-08-01T16:58:53;98835.28;;;25.70;46.88
16431;BME280;8325;49.284;7.238;2022-08-01T17:03:04;98827.78;;;25.67;46.43
16431;BME280;8325;49.284;7.238;2022-08-01T17:07:28;98839.56;;;25.66;46.70
16431;BME280;8325;49.284;7.238;2022-08-01T17:11:41;98839.28;;;25.62;46.97
16431;BME280;8325;49.284;7.238;2022-08-01T17:15:53;98842.22;;;25.51;47.20
16431;BME280;8325;49.284;7.238;2022-08-01T17:20:05;98852.38;;;25.54;47.08
16431;BME280;8325;49.284;7.238;2022-08-01T17:24:16;98850.72;;;25.32;47.48
16431;BME280;8325;49.284;7.238;2022-08-01T17:28:29;98845.88;;;25.19;47.23
16431;BME280;8325;49.284;7.238;2022-08-01T17:32:40;98856.75;;;25.07;47.63
16431;BME280;8325;49.284;7.238;2022-08-01T17:36:52;98855.88;;;24.91;48.28
16431;BME280;8325;49.284;7.238;2022-08-01T17:41:04;98863.88;;;24.86;48.49
16431;BME280;8325;49.284;7.238;2022-08-01T17:45:15;98867.06;;;24.83;48.46
16431;BME280;8325;49.284;7.238;2022-08-01T17:49:39;98872.06;;;24.69;49.09
16431;BME280;8325;49.284;7.238;2022-08-01T17:54:06;98879.25;;;24.64;49.48
16431;BME280;8325;49.284;7.238;2022-08-01T17:58:18;98879.72;;;24.55;49.76
16431;BME280;8325;49.284;7.238;2022-08-01T18:02:50;98879.66;;;24.45;49.77
16431;BME280;8325;49.284;7.238;2022-08-01T18:07:01;98880.03;;;24.32;50.64
16431;BME280;8325;49.284;7.238;2022-08-01T18:11:15;98894.97;;;24.28;50.86
16431;BME280;8325;49.284;7.238;2022-08-01T18:15:28;98884.78;;;24.25;50.95
16431;BME280;8325;49.284;7.238;2022-08-01T18:19:44;98887.91;;;24.17;51.29
16431;BME280;8325;49.284;7.238;2022-08-01T18:23:57;98887.91;;;24.17;50.96
16431;BME280;8325;49.284;7.238;2022-08-01T18:28:09;98887.09;;;24.11;51.55
16431;BME280;8325;49.284;7.238;2022-08-01T18:32:40;98879.41;;;24.20;50.91
16431;BME280;8325;49.284;7.238;2022-08-01T18:36:53;98882.63;;;24.22;51.17
16431;BME280;8325;49.284;7.238;2022-08-01T18:41:07;98885.06;;;24.23;51.38
16431;BME280;8325;49.284;7.238;2022-08-01T18:45:20;98885.81;;;24.19;51.56
16431;BME280;8325;49.284;7.238;2022-08-01T18:49:32;98887.63;;;24.13;51.76
16431;BME280;8325;49.284;7.238;2022-08-01T18:53:44;98885.47;;;24.10;51.88
16431;BME280;8325;49.284;7.238;2022-08-01T18:57:57;98893.91;;;23.97;52.72
16431;BME280;8325;49.284;7.238;2022-08-01T19:02:09;98901.53;;;23.88;52.40
16431;BME280;8325;49.284;7.238;2022-08-01T19:06:20;98902.19;;;23.73;52.67
16431;BME280;8325;49.284;7.238;2022-08-01T19:10:33;98909.69;;;23.54;53.32
16431;BME280;8325;49.284;7.238;2022-08-01T19:14:44;98905.31;;;23.43;54.07
16431;BME280;8325;49.284;7.238;2022-08-01T19:18:56;98911.00;;;23.30;54.02
16431;BME280;8325;49.284;7.238;2022-08-01T19:23:08;98921.72;;;23.13;54.58
16431;BME280;8325;49.284;7.238;2022-08-01T19:27:42;98932.97;;;22.98;55.32
16431;BME280;8325;49.284;7.238;2022-08-01T19:31:57;98928.53;;;22.87;55.22
16431;BME280;8325;49.284;7.238;2022-08-01T19:36:14;98946.84;;;22.83;55.37
16431;BME280;8325;49.284;7.238;2022-08-01T19:40:26;98945.66;;;22.74;55.72
16431;BME280;8325;49.284;7.238;2022-08-01T19:44:39;98945.81;;;22.67;56.22
16431;BME280;8325;49.284;7.238;2022-08-01T19:48:50;98947.28;;;22.58;56.67
16431;BME280;8325;49.284;7.238;2022-08-01T19:53:04;98955.81;;;22.43;56.86
16431;BME280;8325;49.284;7.238;2022-08-01T19:57:17;98958.63;;;22.37;57.36
16431;BME280;8325;49.284;7.238;2022-08-01T20:01:29;98969.50;;;22.35;57.14
16431;BME280;8325;49.284;7.238;2022-08-01T20:05:41;98966.94;;;22.23;57.83
16431;BME280;8325;49.284;7.238;2022-08-01T20:09:54;98970.75;;;22.16;57.82
16431;BME280;8325;49.284;7.238;2022-08-01T20:14:05;98968.97;;;22.04;58.34
16431;BME280;8325;49.284;7.238;2022-08-01T20:18:17;98967.09;;;22.05;58.42
16431;BME280;8325;49.284;7.238;2022-08-01T20:22:33;98972.47;;;21.93;58.78
16431;BME280;8325;49.284;7.238;2022-08-01T20:26:48;98984.84;;;21.88;59.39
16431;BME280;8325;49.284;7.238;2022-08-01T20:31:00;98978.31;;;21.78;59.67
16431;BME280;8325;49.284;7.238;2022-08-01T20:35:16;98981.91;;;21.72;59.61
16431;BME280;8325;49.284;7.238;2022-08-01T20:39:48;98975.22;;;21.58;59.87
16431;BME280;8325;49.284;7.238;2022-08-01T20:44:00;98982.53;;;21.51;60.37
16431;BME280;8325;49.284;7.238;2022-08-01T20:48:11;98987.66;;;21.41;60.90
16431;BME280;8325;49.284;7.238;2022-08-01T20:52:25;98983.81;;;21.36;61.00
16431;BME280;8325;49.284;7.238;2022-08-01T20:56:44;98991.66;;;21.31;61.59
16431;BME280;8325;49.284;7.238;2022-08-01T21:01:00;98993.06;;;21.22;61.70
16431;BME280;8325;49.284;7.238;2022-08-01T21:05:23;98989.94;;;21.13;61.99
16431;BME280;8325;49.284;7.238;2022-08-01T21:09:37;98981.16;;;21.01;62.32
16431;BME280;8325;49.284;7.238;2022-08-01T21:13:53;98986.13;;;20.98;62.39
16431;BME280;8325;49.284;7.238;2022-08-01T21:18:13;98992.69;;;20.83;62.79
16431;BME280;8325;49.284;7.238;2022-08-01T21:27:20;99000.53;;;20.66;63.31
